sensor_id;sensor_type;location;lat;lon;timestamp;P1;durP1;ratioP1;P2;durP2;ratioP2
76610;SDS011;65503;48.534;9.062;2023-01-04T00:01:41;19.00;;;8.10;;
76610;SDS011;65503;48.534;9.062;2023-01-04T00:04:08;20.13;;;8.98;;
76610;SDS011;65503;48.534;9.062;2023-01-04T00:06:35;19.45;;;9.35;;
76610;SDS011;65503;48.534;9.062;2023-01-04T00:09:01;18.55;;;8.50;;
76610;SDS011;65503;48.534;9.062;2023-01-04T00:11:28;18.85;;;9.27;;
76610;SDS011;65503;48.534;9.062;2023-01-04T00:13:55;21.05;;;9.55;;
76610;SDS011;65503;48.534;9.062;2023-01-04T00:16:25;19.35;;;8.88;;
76610;SDS011;65503;48.534;9.062;2023-01-04T00:18:53;18.20;;;8.75;;
76610;SDS011;65503;48.534;9.062;2023-01-04T00:21:27;23.92;;;9.57;;
76610;SDS011;65503;48.534;9.062;2023-01-04T00:23:56;18.38;;;7.57;;
76610;SDS011;65503;48.534;9.062;2023-01-04T00:26:33;17.30;;;7.55;;
76610;SDS011;65503;48.534;9.062;2023-01-04T00:29:01;17.60;;;7.30;;
76610;SDS011;65503;48.534;9.062;2023-01-04T00:31:32;19.17;;;8.48;;
76610;SDS011;65503;48.534;9.062;2023-01-04T00:34:00;21.67;;;9.45;;
76610;SDS011;65503;48.534;9.062;2023-01-04T00:36:28;25.13;;;10.15;;
76610;SDS011;65503;48.534;9.062;2023-01-04T00:38:56;19.92;;;8.73;;
76610;SDS011;65503;48.534;9.062;2023-01-04T00:41:44;22.23;;;9.27;;
76610;SDS011;65503;48.534;9.062;2023-01-04T00:44:28;26.45;;;11.18;;
76610;SDS011;65503;48.534;9.062;2023-01-04T00:46:55;21.40;;;9.75;;
76610;SDS011;65503;48.534;9.062;2023-01-04T00:49:22;17.05;;;8.90;;
76610;SDS011;65503;48.534;9.062;2023-01-04T00:51:48;19.17;;;9.02;;
76610;SDS011;65503;48.534;9.062;2023-01-04T00:54:16;15.38;;;7.60;;
76610;SDS011;65503;48.534;9.062;2023-01-04T00:56:43;19.10;;;8.75;;
76610;SDS011;65503;48.534;9.062;2023-01-04T00:59:13;45.78;;;14.38;;
76610;SDS011;65503;48.534;9.062;2023-01-04T01:01:41;21.67;;;8.40;;
76610;SDS011;65503;48.534;9.062;2023-01-04T01:04:09;17.20;;;7.30;;
76610;SDS011;65503;48.534;9.062;2023-01-04T01:06:38;29.40;;;11.40;;
76610;SDS011;65503;48.534;9.062;2023-01-04T01:09:04;18.98;;;8.65;;
76610;SDS011;65503;48.534;9.062;2023-01-04T01:11:31;17.75;;;7.28;;
76610;SDS011;65503;48.534;9.062;2023-01-04T01:13:57;20.20;;;8.73;;
76610;SDS011;65503;48.534;9.062;2023-01-04T01:16:24;20.08;;;8.93;;
76610;SDS011;65503;48.534;9.062;2023-01-04T01:19:12;15.63;;;6.68;;
76610;SDS011;65503;48.534;9.062;2023-01-04T01:21:38;22.35;;;9.20;;
76610;SDS011;65503;48.534;9.062;2023-01-04T01:24:05;21.95;;;9.07;;
76610;SDS011;65503;48.534;9.062;2023-01-04T01:26:32;28.80;;;11.35;;
76610;SDS011;65503;48.534;9.062;2023-01-04T01:28:59;28.63;;;11.40;;
76610;SDS011;65503;48.534;9.062;2023-01-04T01:31:26;43.88;;;16.88;;
76610;SDS011;65503;48.534;9.062;2023-01-04T01:33:54;44.42;;;15.88;;
76610;SDS011;65503;48.534;9.062;2023-01-04T01:36:22;37.72;;;14.75;;
76610;SDS011;65503;48.534;9.062;2023-01-04T01:38:50;32.05;;;12.18;;
76610;SDS011;65503;48.534;9.062;2023-01-04T01:41:21;33.13;;;13.18;;
76610;SDS011;65503;48.534;9.062;2023-01-04T01:46:51;35.03;;;13.73;;
76610;SDS011;65503;48.534;9.062;2023-01-04T01:51:55;25.58;;;10.13;;
76610;SDS011;65503;48.534;9.062;2023-01-04T01:54:34;29.58;;;11.45;;
76610;SDS011;65503;48.534;9.062;2023-01-04T01:57:08;27.58;;;10.48;;
76610;SDS011;65503;48.534;9.062;2023-01-04T01:59:37;23.23;;;9.07;;
76610;SDS011;65503;48.534;9.062;2023-01-04T02:02:07;47.70;;;12.63;;
76610;SDS011;65503;48.534;9.062;2023-01-04T02:04:36;29.73;;;10.98;;
76610;SDS011;65503;48.534;9.062;2023-01-04T02:07:06;33.30;;;12.75;;
76610;SDS011;65503;48.534;9.062;2023-01-04T02:09:34;36.47;;;13.55;;
76610;SDS011;65503;48.534;9.062;2023-01-04T02:12:02;39.55;;;13.20;;
76610;SDS011;65503;48.534;9.062;2023-01-04T02:14:28;43.90;;;12.70;;
76610;SDS011;65503;48.534;9.062;2023-01-04T02:17:06;29.05;;;12.05;;
76610;SDS011;65503;48.534;9.062;2023-01-04T02:22:50;34.08;;;10.82;;
76610;SDS011;65503;48.534;9.062;2023-01-04T02:28:59;67.25;;;13.73;;
76610;SDS011;65503;48.534;9.062;2023-01-04T02:34:12;27.80;;;8.77;;
76610;SDS011;65503;48.534;9.062;2023-01-04T02:37:15;28.30;;;9.25;;
76610;SDS011;65503;48.534;9.062;2023-01-04T02:46:07;29.67;;;8.10;;
76610;SDS011;65503;48.534;9.062;2023-01-04T02:48:40;176.10;;;15.93;;
76610;SDS011;65503;48.534;9.062;2023-01-04T02:51:27;15.20;;;7.80;;
76610;SDS011;65503;48.534;9.062;2023-01-04T02:54:07;17.23;;;8.48;;
76610;SDS011;65503;48.534;9.062;2023-01-04T02:59:59;65.57;;;12.52;;
76610;SDS011;65503;48.534;9.062;2023-01-04T03:08:53;17.95;;;7.75;;
76610;SDS011;65503;48.534;9.062;2023-01-04T03:11:42;15.43;;;5.85;;
76610;SDS011;65503;48.534;9.062;2023-01-04T03:14:33;14.40;;;6.10;;
76610;SDS011;65503;48.534;9.062;2023-01-04T03:17:06;24.92;;;5.78;;
76610;SDS011;65503;48.534;9.062;2023-01-04T03:19:37;10.75;;;4.80;;
76610;SDS011;65503;48.534;9.062;2023-01-04T03:25:48;18.40;;;7.47;;
76610;SDS011;65503;48.534;9.062;2023-01-04T03:28:42;14.25;;;6.28;;
76610;SDS011;65503;48.534;9.062;2023-01-04T03:34:18;15.23;;;6.70;;
76610;SDS011;65503;48.534;9.062;2023-01-04T03:37:04;17.52;;;7.22;;
76610;SDS011;65503;48.534;9.062;2023-01-04T03:39:44;51.45;;;8.15;;
76610;SDS011;65503;48.534;9.062;2023-01-04T03:42:45;88.57;;;10.57;;
76610;SDS011;65503;48.534;9.062;2023-01-04T03:45:39;20.05;;;7.63;;
76610;SDS011;65503;48.534;9.062;2023-01-04T03:48:46;17.95;;;6.95;;
76610;SDS011;65503;48.534;9.062;2023-01-04T03:51:28;42.42;;;11.23;;
76610;SDS011;65503;48.534;9.062;2023-01-04T03:56:48;16.63;;;7.60;;
76610;SDS011;65503;48.534;9.062;2023-01-04T03:59:16;17.10;;;7.07;;
76610;SDS011;65503;48.534;9.062;2023-01-04T04:01:42;18.77;;;7.97;;
76610;SDS011;65503;48.534;9.062;2023-01-04T04:04:10;17.08;;;7.10;;
76610;SDS011;65503;48.534;9.062;2023-01-04T04:06:55;35.30;;;8.68;;
76610;SDS011;65503;48.534;9.062;2023-01-04T04:09:40;25.35;;;9.27;;
76610;SDS011;65503;48.534;9.062;2023-01-04T04:12:06;155.27;;;16.05;;
76610;SDS011;65503;48.534;9.062;2023-01-04T04:14:33;143.77;;;15.07;;
76610;SDS011;65503;48.534;9.062;2023-01-04T04:17:00;27.00;;;10.20;;
76610;SDS011;65503;48.534;9.062;2023-01-04T04:19:26;51.30;;;12.02;;
76610;SDS011;65503;48.534;9.062;2023-01-04T04:21:53;53.20;;;11.82;;
76610;SDS011;65503;48.534;9.062;2023-01-04T04:24:20;83.85;;;11.15;;
76610;SDS011;65503;48.534;9.062;2023-01-04T04:26:52;235.82;;;18.55;;
76610;SDS011;65503;48.534;9.062;2023-01-04T04:29:20;65.13;;;10.40;;
76610;SDS011;65503;48.534;9.062;2023-01-04T04:31:47;24.65;;;9.23;;
76610;SDS011;65503;48.534;9.062;2023-01-04T04:34:14;17.38;;;6.68;;
76610;SDS011;65503;48.534;9.062;2023-01-04T04:36:40;85.07;;;11.70;;
76610;SDS011;65503;48.534;9.062;2023-01-04T04:39:07;36.15;;;11.57;;
76610;SDS011;65503;48.534;9.062;2023-01-04T04:41:33;111.75;;;12.40;;
76610;SDS011;65503;48.534;9.062;2023-01-04T04:44:10;33.33;;;11.25;;
76610;SDS011;65503;48.534;9.062;2023-01-04T04:46:38;84.05;;;12.70;;
76610;SDS011;65503;48.534;9.062;2023-01-04T04:49:05;33.10;;;10.20;;
76610;SDS011;65503;48.534;9.062;2023-01-04T04:51:32;75.03;;;10.43;;
76610;SDS011;65503;48.534;9.062;2023-01-04T04:53:59;36.72;;;11.50;;
76610;SDS011;65503;48.534;9.062;2023-01-04T04:56:26;107.80;;;15.27;;
76610;SDS011;65503;48.534;9.062;2023-01-04T04:58:52;40.92;;;12.18;;
76610;SDS011;65503;48.534;9.062;2023-01-04T05:01:19;36.88;;;10.65;;
76610;SDS011;65503;48.534;9.062;2023-01-04T05:03:46;90.72;;;13.40;;
76610;SDS011;65503;48.534;9.062;2023-01-04T05:06:13;45.60;;;11.10;;
76610;SDS011;65503;48.534;9.062;2023-01-04T05:08:39;46.35;;;12.80;;
76610;SDS011;65503;48.534;9.062;2023-01-04T05:11:07;47.83;;;11.43;;
76610;SDS011;65503;48.534;9.062;2023-01-04T05:13:35;40.33;;;13.07;;
76610;SDS011;65503;48.534;9.062;2023-01-04T05:16:03;45.85;;;12.75;;
76610;SDS011;65503;48.534;9.062;2023-01-04T05:18:31;42.17;;;13.50;;
76610;SDS011;65503;48.534;9.062;2023-01-04T05:20:58;42.30;;;12.50;;
76610;SDS011;65503;48.534;9.062;2023-01-04T05:23:25;42.38;;;11.90;;
76610;SDS011;65503;48.534;9.062;2023-01-04T05:25:52;52.30;;;14.80;;
76610;SDS011;65503;48.534;9.062;2023-01-04T05:28:21;35.35;;;11.88;;
76610;SDS011;65503;48.534;9.062;2023-01-04T05:30:48;40.25;;;12.45;;
76610;SDS011;65503;48.534;9.062;2023-01-04T05:33:20;36.97;;;11.93;;
76610;SDS011;65503;48.534;9.062;2023-01-04T05:35:49;48.15;;;13.80;;
76610;SDS011;65503;48.534;9.062;2023-01-04T05:38:16;45.13;;;12.73;;
76610;SDS011;65503;48.534;9.062;2023-01-04T05:40:43;43.03;;;11.48;;
76610;SDS011;65503;48.534;9.062;2023-01-04T05:43:10;35.88;;;10.40;;
76610;SDS011;65503;48.534;9.062;2023-01-04T05:45:42;35.30;;;10.05;;
76610;SDS011;65503;48.534;9.062;2023-01-04T05:48:09;49.08;;;14.05;;
76610;SDS011;65503;48.534;9.062;2023-01-04T05:50:36;47.22;;;12.65;;
76610;SDS011;65503;48.534;9.062;2023-01-04T05:53:03;39.20;;;10.20;;
76610;SDS011;65503;48.534;9.062;2023-01-04T05:55:31;32.05;;;10.57;;
76610;SDS011;65503;48.534;9.062;2023-01-04T05:57:57;33.35;;;9.82;;
76610;SDS011;65503;48.534;9.062;2023-01-04T06:00:24;37.13;;;12.48;;
76610;SDS011;65503;48.534;9.062;2023-01-04T06:02:51;52.45;;;14.90;;
76610;SDS011;65503;48.534;9.062;2023-01-04T06:05:17;45.95;;;12.57;;
76610;SDS011;65503;48.534;9.062;2023-01-04T06:07:44;37.42;;;11.27;;
76610;SDS011;65503;48.534;9.062;2023-01-04T06:10:11;40.03;;;12.20;;
76610;SDS011;65503;48.534;9.062;2023-01-04T06:12:39;47.00;;;13.98;;
76610;SDS011;65503;48.534;9.062;2023-01-04T06:15:07;46.55;;;13.23;;
76610;SDS011;65503;48.534;9.062;2023-01-04T06:20:03;32.75;;;10.52;;
76610;SDS011;65503;48.534;9.062;2023-01-04T06:22:30;45.58;;;15.73;;
76610;SDS011;65503;48.534;9.062;2023-01-04T06:24:58;47.17;;;14.13;;
76610;SDS011;65503;48.534;9.062;2023-01-04T06:27:24;34.58;;;12.77;;
76610;SDS011;65503;48.534;9.062;2023-01-04T06:29:51;43.85;;;13.38;;
76610;SDS011;65503;48.534;9.062;2023-01-04T06:32:18;40.08;;;14.73;;
76610;SDS011;65503;48.534;9.062;2023-01-04T06:34:44;41.33;;;13.63;;
76610;SDS011;65503;48.534;9.062;2023-01-04T06:37:11;37.47;;;13.60;;
76610;SDS011;65503;48.534;9.062;2023-01-04T06:39:38;37.65;;;13.43;;
76610;SDS011;65503;48.534;9.062;2023-01-04T06:42:04;32.35;;;11.30;;
76610;SDS011;65503;48.534;9.062;2023-01-04T06:44:32;29.75;;;9.95;;
76610;SDS011;65503;48.534;9.062;2023-01-04T06:46:59;31.38;;;11.65;;
76610;SDS011;65503;48.534;9.062;2023-01-04T06:49:25;31.58;;;12.27;;
76610;SDS011;65503;48.534;9.062;2023-01-04T06:51:52;23.55;;;8.75;;
76610;SDS011;65503;48.534;9.062;2023-01-04T06:54:18;12.93;;;6.32;;
76610;SDS011;65503;48.534;9.062;2023-01-04T06:56:45;15.80;;;6.35;;
76610;SDS011;65503;48.534;9.062;2023-01-04T06:59:11;9.77;;;4.35;;
76610;SDS011;65503;48.534;9.062;2023-01-04T07:01:38;9.77;;;3.75;;
76610;SDS011;65503;48.534;9.062;2023-01-04T07:04:05;7.15;;;2.80;;
76610;SDS011;65503;48.534;9.062;2023-01-04T07:06:31;6.15;;;2.90;;
76610;SDS011;65503;48.534;9.062;2023-01-04T07:08:58;6.57;;;3.22;;
76610;SDS011;65503;48.534;9.062;2023-01-04T07:11:24;6.25;;;2.60;;
76610;SDS011;65503;48.534;9.062;2023-01-04T07:13:51;6.75;;;2.58;;
76610;SDS011;65503;48.534;9.062;2023-01-04T07:16:18;4.68;;;2.33;;
76610;SDS011;65503;48.534;9.062;2023-01-04T07:18:45;4.45;;;2.40;;
76610;SDS011;65503;48.534;9.062;2023-01-04T07:21:11;5.70;;;2.42;;
76610;SDS011;65503;48.534;9.062;2023-01-04T07:23:38;5.45;;;2.25;;
76610;SDS011;65503;48.534;9.062;2023-01-04T07:26:04;6.32;;;2.10;;
76610;SDS011;65503;48.534;9.062;2023-01-04T07:28:31;5.15;;;2.40;;
76610;SDS011;65503;48.534;9.062;2023-01-04T07:31:16;9.52;;;2.75;;
76610;SDS011;65503;48.534;9.062;2023-01-04T07:33:42;4.72;;;1.92;;
76610;SDS011;65503;48.534;9.062;2023-01-04T07:36:09;4.82;;;2.47;;
76610;SDS011;65503;48.534;9.062;2023-01-04T07:38:35;4.75;;;2.30;;
76610;SDS011;65503;48.534;9.062;2023-01-04T07:41:02;7.05;;;2.13;;
76610;SDS011;65503;48.534;9.062;2023-01-04T07:43:29;5.80;;;2.67;;
76610;SDS011;65503;48.534;9.062;2023-01-04T07:45:56;4.53;;;1.75;;
76610;SDS011;65503;48.534;9.062;2023-01-04T07:48:22;4.60;;;1.80;;
76610;SDS011;65503;48.534;9.062;2023-01-04T07:50:49;5.57;;;2.30;;
76610;SDS011;65503;48.534;9.062;2023-01-04T07:53:15;5.13;;;2.00;;
76610;SDS011;65503;48.534;9.062;2023-01-04T07:55:42;6.57;;;2.40;;
76610;SDS011;65503;48.534;9.062;2023-01-04T07:58:08;5.03;;;2.35;;
76610;SDS011;65503;48.534;9.062;2023-01-04T08:00:35;4.25;;;1.80;;
76610;SDS011;65503;48.534;9.062;2023-01-04T08:03:02;7.03;;;2.03;;
76610;SDS011;65503;48.534;9.062;2023-01-04T08:05:32;5.35;;;1.75;;
76610;SDS011;65503;48.534;9.062;2023-01-04T08:07:59;4.55;;;1.98;;
76610;SDS011;65503;48.534;9.062;2023-01-04T08:10:26;4.95;;;1.60;;
76610;SDS011;65503;48.534;9.062;2023-01-04T08:12:53;4.63;;;1.67;;
76610;SDS011;65503;48.534;9.062;2023-01-04T08:15:19;4.10;;;1.77;;
76610;SDS011;65503;48.534;9.062;2023-01-04T08:17:46;4.53;;;1.50;;
76610;SDS011;65503;48.534;9.062;2023-01-04T08:20:12;4.80;;;1.90;;
76610;SDS011;65503;48.534;9.062;2023-01-04T08:22:39;6.80;;;1.80;;
76610;SDS011;65503;48.534;9.062;2023-01-04T08:25:05;4.55;;;1.73;;
76610;SDS011;65503;48.534;9.062;2023-01-04T08:27:32;5.72;;;1.80;;
76610;SDS011;65503;48.534;9.062;2023-01-04T08:29:58;4.90;;;1.75;;
76610;SDS011;65503;48.534;9.062;2023-01-04T08:32:25;3.35;;;1.48;;
76610;SDS011;65503;48.534;9.062;2023-01-04T08:34:52;7.82;;;1.88;;
76610;SDS011;65503;48.534;9.062;2023-01-04T08:37:19;3.80;;;1.50;;
76610;SDS011;65503;48.534;9.062;2023-01-04T08:39:46;2.83;;;1.48;;
76610;SDS011;65503;48.534;9.062;2023-01-04T08:42:15;2.13;;;1.20;;
76610;SDS011;65503;48.534;9.062;2023-01-04T08:44:55;3.15;;;1.20;;
76610;SDS011;65503;48.534;9.062;2023-01-04T08:47:25;3.00;;;1.20;;
76610;SDS011;65503;48.534;9.062;2023-01-04T08:49:53;4.85;;;1.20;;
76610;SDS011;65503;48.534;9.062;2023-01-04T08:52:19;3.10;;;1.20;;
76610;SDS011;65503;48.534;9.062;2023-01-04T08:54:47;2.20;;;1.20;;
76610;SDS011;65503;48.534;9.062;2023-01-04T08:57:14;3.08;;;1.20;;
76610;SDS011;65503;48.534;9.062;2023-01-04T08:59:41;3.83;;;1.10;;
76610;SDS011;65503;48.534;9.062;2023-01-04T09:02:18;3.83;;;1.30;;
76610;SDS011;65503;48.534;9.062;2023-01-04T09:04:47;2.90;;;1.10;;
76610;SDS011;65503;48.534;9.062;2023-01-04T09:07:14;2.72;;;1.10;;
76610;SDS011;65503;48.534;9.062;2023-01-04T09:09:41;1.35;;;0.90;;
76610;SDS011;65503;48.534;9.062;2023-01-04T09:12:08;3.10;;;1.20;;
76610;SDS011;65503;48.534;9.062;2023-01-04T09:14:35;2.42;;;1.10;;
76610;SDS011;65503;48.534;9.062;2023-01-04T09:17:01;4.40;;;0.90;;
76610;SDS011;65503;48.534;9.062;2023-01-04T09:19:28;2.65;;;1.00;;
76610;SDS011;65503;48.534;9.062;2023-01-04T09:21:54;2.95;;;0.68;;
76610;SDS011;65503;48.534;9.062;2023-01-04T09:24:21;2.35;;;1.02;;
76610;SDS011;65503;48.534;9.062;2023-01-04T09:26:47;3.97;;;0.80;;
76610;SDS011;65503;48.534;9.062;2023-01-04T09:29:14;1.30;;;0.70;;
76610;SDS011;65503;48.534;9.062;2023-01-04T09:31:41;1.05;;;0.70;;
76610;SDS011;65503;48.534;9.062;2023-01-04T09:34:08;2.28;;;0.90;;
76610;SDS011;65503;48.534;9.062;2023-01-04T09:36:42;1.35;;;0.80;;
76610;SDS011;65503;48.534;9.062;2023-01-04T09:39:09;2.78;;;0.80;;
76610;SDS011;65503;48.534;9.062;2023-01-04T09:41:56;1.05;;;0.70;;
76610;SDS011;65503;48.534;9.062;2023-01-04T09:58:51;1.45;;;0.52;;
76610;SDS011;65503;48.534;9.062;2023-01-04T10:01:21;1.08;;;0.68;;
76610;SDS011;65503;48.534;9.062;2023-01-04T10:03:57;2.92;;;0.82;;
76610;SDS011;65503;48.534;9.062;2023-01-04T10:06:31;2.58;;;0.60;;
76610;SDS011;65503;48.534;9.062;2023-01-04T10:09:03;1.92;;;0.85;;
76610;SDS011;65503;48.534;9.062;2023-01-04T10:11:48;1.98;;;0.73;;
76610;SDS011;65503;48.534;9.062;2023-01-04T10:14:35;1.45;;;0.80;;
76610;SDS011;65503;48.534;9.062;2023-01-04T10:17:13;2.22;;;0.90;;
76610;SDS011;65503;48.534;9.062;2023-01-04T10:26:14;2.13;;;0.80;;
76610;SDS011;65503;48.534;9.062;2023-01-04T10:31:39;1.35;;;0.68;;
76610;SDS011;65503;48.534;9.062;2023-01-04T10:36:46;3.40;;;0.73;;
76610;SDS011;65503;48.534;9.062;2023-01-04T10:39:17;1.85;;;0.95;;
76610;SDS011;65503;48.534;9.062;2023-01-04T10:42:05;1.92;;;0.73;;
76610;SDS011;65503;48.534;9.062;2023-01-04T10:44:56;5.07;;;0.95;;
76610;SDS011;65503;48.534;9.062;2023-01-04T10:50:20;1.02;;;0.80;;
76610;SDS011;65503;48.534;9.062;2023-01-04T10:52:54;1.20;;;0.80;;
76610;SDS011;65503;48.534;9.062;2023-01-04T10:55:29;3.60;;;1.08;;
76610;SDS011;65503;48.534;9.062;2023-01-04T10:58:03;1.45;;;0.80;;
76610;SDS011;65503;48.534;9.062;2023-01-04T11:06:29;1.35;;;0.80;;
76610;SDS011;65503;48.534;9.062;2023-01-04T11:09:02;4.00;;;0.90;;
76610;SDS011;65503;48.534;9.062;2023-01-04T11:11:36;1.95;;;0.90;;
76610;SDS011;65503;48.534;9.062;2023-01-04T11:14:08;3.00;;;1.08;;
76610;SDS011;65503;48.534;9.062;2023-01-04T11:16:35;3.92;;;1.05;;
76610;SDS011;65503;48.534;9.062;2023-01-04T11:19:05;3.58;;;0.90;;
76610;SDS011;65503;48.534;9.062;2023-01-04T11:24:22;3.53;;;1.10;;
76610;SDS011;65503;48.534;9.062;2023-01-04T11:26:58;1.63;;;0.90;;
76610;SDS011;65503;48.534;9.062;2023-01-04T11:29:38;4.35;;;1.10;;
76610;SDS011;65503;48.534;9.062;2023-01-04T11:32:13;4.72;;;0.98;;
76610;SDS011;65503;48.534;9.062;2023-01-04T11:34:50;2.70;;;1.00;;
76610;SDS011;65503;48.534;9.062;2023-01-04T11:37:23;2.13;;;0.80;;
76610;SDS011;65503;48.534;9.062;2023-01-04T11:40:40;1.95;;;0.90;;
76610;SDS011;65503;48.534;9.062;2023-01-04T11:43:10;2.85;;;0.90;;
76610;SDS011;65503;48.534;9.062;2023-01-04T11:45:51;1.98;;;0.90;;
76610;SDS011;65503;48.534;9.062;2023-01-04T11:48:24;3.17;;;0.90;;
76610;SDS011;65503;48.534;9.062;2023-01-04T11:50:57;4.53;;;1.10;;
76610;SDS011;65503;48.534;9.062;2023-01-04T11:56:13;3.63;;;0.95;;
76610;SDS011;65503;48.534;9.062;2023-01-04T11:58:40;2.03;;;0.90;;
76610;SDS011;65503;48.534;9.062;2023-01-04T12:01:22;5.35;;;1.23;;
76610;SDS011;65503;48.534;9.062;2023-01-04T12:03:50;2.97;;;0.90;;
76610;SDS011;65503;48.534;9.062;2023-01-04T12:09:02;2.63;;;1.08;;
76610;SDS011;65503;48.534;9.062;2023-01-04T12:11:30;1.88;;;1.00;;
76610;SDS011;65503;48.534;9.062;2023-01-04T12:14:00;1.60;;;0.80;;
76610;SDS011;65503;48.534;9.062;2023-01-04T12:16:40;3.10;;;0.75;;
76610;SDS011;65503;48.534;9.062;2023-01-04T12:19:16;4.32;;;0.88;;
76610;SDS011;65503;48.534;9.062;2023-01-04T12:21:46;2.70;;;0.80;;
76610;SDS011;65503;48.534;9.062;2023-01-04T12:24:20;2.15;;;0.90;;
76610;SDS011;65503;48.534;9.062;2023-01-04T12:26:49;2.53;;;0.88;;
76610;SDS011;65503;48.534;9.062;2023-01-04T12:31:50;2.33;;;1.00;;
76610;SDS011;65503;48.534;9.062;2023-01-04T12:34:38;4.45;;;1.05;;
76610;SDS011;65503;48.534;9.062;2023-01-04T12:37:05;2.60;;;1.10;;
76610;SDS011;65503;48.534;9.062;2023-01-04T12:39:40;1.23;;;0.70;;
76610;SDS011;65503;48.534;9.062;2023-01-04T12:42:10;2.38;;;1.00;;
76610;SDS011;65503;48.534;9.062;2023-01-04T12:50:05;1.73;;;0.90;;
76610;SDS011;65503;48.534;9.062;2023-01-04T12:52:44;3.45;;;1.05;;
76610;SDS011;65503;48.534;9.062;2023-01-04T12:58:07;3.75;;;1.30;;
76610;SDS011;65503;48.534;9.062;2023-01-04T13:01:27;3.45;;;1.20;;
76610;SDS011;65503;48.534;9.062;2023-01-04T13:04:02;2.05;;;1.00;;
76610;SDS011;65503;48.534;9.062;2023-01-04T13:06:48;2.38;;;1.08;;
76610;SDS011;65503;48.534;9.062;2023-01-04T13:09:17;2.38;;;1.20;;
76610;SDS011;65503;48.534;9.062;2023-01-04T13:12:00;2.42;;;1.17;;
76610;SDS011;65503;48.534;9.062;2023-01-04T13:14:47;2.40;;;0.98;;
76610;SDS011;65503;48.534;9.062;2023-01-04T13:17:20;3.92;;;1.10;;
76610;SDS011;65503;48.534;9.062;2023-01-04T13:19:50;3.17;;;1.30;;
76610;SDS011;65503;48.534;9.062;2023-01-04T13:22:27;3.83;;;1.20;;
76610;SDS011;65503;48.534;9.062;2023-01-04T13:24:55;4.93;;;2.40;;
76610;SDS011;65503;48.534;9.062;2023-01-04T13:27:25;3.47;;;1.20;;
76610;SDS011;65503;48.534;9.062;2023-01-04T13:29:51;2.97;;;1.10;;
76610;SDS011;65503;48.534;9.062;2023-01-04T13:32:25;2.95;;;1.13;;
76610;SDS011;65503;48.534;9.062;2023-01-04T13:34:54;3.58;;;1.20;;
76610;SDS011;65503;48.534;9.062;2023-01-04T13:37:41;1.92;;;0.90;;
76610;SDS011;65503;48.534;9.062;2023-01-04T13:45:48;2.65;;;0.90;;
76610;SDS011;65503;48.534;9.062;2023-01-04T13:48:35;1.60;;;0.95;;
76610;SDS011;65503;48.534;9.062;2023-01-04T13:51:14;0.90;;;0.70;;
76610;SDS011;65503;48.534;9.062;2023-01-04T13:53:41;1.60;;;0.82;;
76610;SDS011;65503;48.534;9.062;2023-01-04T13:56:18;1.67;;;0.70;;
76610;SDS011;65503;48.534;9.062;2023-01-04T13:58:46;1.48;;;0.93;;
76610;SDS011;65503;48.534;9.062;2023-01-04T14:01:18;0.85;;;0.40;;
76610;SDS011;65503;48.534;9.062;2023-01-04T14:03:53;2.90;;;1.15;;
76610;SDS011;65503;48.534;9.062;2023-01-04T14:06:25;1.25;;;0.50;;
76610;SDS011;65503;48.534;9.062;2023-01-04T14:09:13;0.95;;;0.60;;
76610;SDS011;65503;48.534;9.062;2023-01-04T14:11:43;0.75;;;0.50;;
76610;SDS011;65503;48.534;9.062;2023-01-04T14:17:55;0.70;;;0.45;;
76610;SDS011;65503;48.534;9.062;2023-01-04T14:22:49;1.45;;;0.60;;
76610;SDS011;65503;48.534;9.062;2023-01-04T14:36:02;2.22;;;1.00;;
76610;SDS011;65503;48.534;9.062;2023-01-04T14:38:37;1.13;;;0.63;;
76610;SDS011;65503;48.534;9.062;2023-01-04T14:43:50;1.98;;;0.80;;
76610;SDS011;65503;48.534;9.062;2023-01-04T14:46:21;1.77;;;0.60;;
76610;SDS011;65503;48.534;9.062;2023-01-04T14:48:48;1.35;;;0.80;;
76610;SDS011;65503;48.534;9.062;2023-01-04T14:51:18;2.05;;;0.77;;
76610;SDS011;65503;48.534;9.062;2023-01-04T14:53:48;0.75;;;0.60;;
76610;SDS011;65503;48.534;9.062;2023-01-04T14:56:16;0.30;;;0.30;;
76610;SDS011;65503;48.534;9.062;2023-01-04T15:01:11;1.20;;;0.70;;
76610;SDS011;65503;48.534;9.062;2023-01-04T15:03:37;1.20;;;0.85;;
76610;SDS011;65503;48.534;9.062;2023-01-04T15:06:04;0.60;;;0.52;;
76610;SDS011;65503;48.534;9.062;2023-01-04T15:08:32;1.45;;;0.60;;
76610;SDS011;65503;48.534;9.062;2023-01-04T15:10:59;4.10;;;1.00;;
76610;SDS011;65503;48.534;9.062;2023-01-04T15:13:25;1.90;;;0.73;;
76610;SDS011;65503;48.534;9.062;2023-01-04T15:15:52;1.98;;;0.80;;
76610;SDS011;65503;48.534;9.062;2023-01-04T15:18:18;1.05;;;0.80;;
76610;SDS011;65503;48.534;9.062;2023-01-04T15:20:45;1.65;;;0.90;;
76610;SDS011;65503;48.534;9.062;2023-01-04T15:23:12;1.40;;;0.50;;
76610;SDS011;65503;48.534;9.062;2023-01-04T15:25:38;2.33;;;0.70;;
76610;SDS011;65503;48.534;9.062;2023-01-04T15:28:06;2.17;;;1.00;;
76610;SDS011;65503;48.534;9.062;2023-01-04T15:30:33;1.38;;;0.70;;
76610;SDS011;65503;48.534;9.062;2023-01-04T15:33:00;1.20;;;0.77;;
76610;SDS011;65503;48.534;9.062;2023-01-04T15:35:26;2.40;;;0.68;;
76610;SDS011;65503;48.534;9.062;2023-01-04T15:37:52;0.57;;;0.50;;
76610;SDS011;65503;48.534;9.062;2023-01-04T15:40:19;3.03;;;0.80;;
76610;SDS011;65503;48.534;9.062;2023-01-04T15:42:45;3.25;;;0.70;;
76610;SDS011;65503;48.534;9.062;2023-01-04T15:45:28;0.73;;;0.70;;
76610;SDS011;65503;48.534;9.062;2023-01-04T15:47:59;1.80;;;0.70;;
76610;SDS011;65503;48.534;9.062;2023-01-04T15:50:29;1.63;;;0.63;;
76610;SDS011;65503;48.534;9.062;2023-01-04T15:52:56;1.38;;;0.65;;
76610;SDS011;65503;48.534;9.062;2023-01-04T15:55:23;2.83;;;0.80;;
76610;SDS011;65503;48.534;9.062;2023-01-04T15:57:49;2.28;;;0.80;;
76610;SDS011;65503;48.534;9.062;2023-01-04T16:00:16;2.75;;;0.60;;
76610;SDS011;65503;48.534;9.062;2023-01-04T16:02:43;1.48;;;0.70;;
76610;SDS011;65503;48.534;9.062;2023-01-04T16:05:09;1.00;;;0.60;;
76610;SDS011;65503;48.534;9.062;2023-01-04T16:07:36;4.40;;;1.05;;
76610;SDS011;65503;48.534;9.062;2023-01-04T16:10:03;1.80;;;0.77;;
76610;SDS011;65503;48.534;9.062;2023-01-04T16:12:30;3.10;;;0.90;;
76610;SDS011;65503;48.534;9.062;2023-01-04T16:15:10;1.08;;;0.80;;
76610;SDS011;65503;48.534;9.062;2023-01-04T16:17:42;2.17;;;0.80;;
76610;SDS011;65503;48.534;9.062;2023-01-04T16:20:10;3.08;;;0.80;;
76610;SDS011;65503;48.534;9.062;2023-01-04T16:22:39;1.65;;;0.82;;
76610;SDS011;65503;48.534;9.062;2023-01-04T16:25:06;4.47;;;1.00;;
76610;SDS011;65503;48.534;9.062;2023-01-04T16:27:36;2.20;;;1.00;;
76610;SDS011;65503;48.534;9.062;2023-01-04T16:30:05;1.65;;;0.90;;
76610;SDS011;65503;48.534;9.062;2023-01-04T16:32:41;2.20;;;1.00;;
76610;SDS011;65503;48.534;9.062;2023-01-04T16:35:09;2.25;;;0.82;;
76610;SDS011;65503;48.534;9.062;2023-01-04T16:37:38;2.47;;;1.17;;
76610;SDS011;65503;48.534;9.062;2023-01-04T16:40:05;2.17;;;0.90;;
76610;SDS011;65503;48.534;9.062;2023-01-04T16:42:34;2.47;;;1.02;;
76610;SDS011;65503;48.534;9.062;2023-01-04T16:45:03;2.40;;;1.20;;
76610;SDS011;65503;48.534;9.062;2023-01-04T16:47:36;1.23;;;1.00;;
76610;SDS011;65503;48.534;9.062;2023-01-04T16:50:08;3.58;;;1.40;;
76610;SDS011;65503;48.534;9.062;2023-01-04T16:52:39;4.13;;;1.20;;
76610;SDS011;65503;48.534;9.062;2023-01-04T16:55:05;2.95;;;1.10;;
76610;SDS011;65503;48.534;9.062;2023-01-04T16:57:32;4.60;;;1.40;;
76610;SDS011;65503;48.534;9.062;2023-01-04T16:59:59;2.13;;;0.93;;
76610;SDS011;65503;48.534;9.062;2023-01-04T17:02:25;2.55;;;1.00;;
76610;SDS011;65503;48.534;9.062;2023-01-04T17:04:52;2.65;;;1.10;;